Time;durP1;ratioP1;P1;durP2;ratioP2;P2;SDS_P1;SDS_P2;PMS_P1;PMS_P2;Temp;Humidity;BMP_temperature;BMP_pressure;BME280_temperature;BME280_humidity;BME280_pressure;Samples;Min_cycle;Max_cycle;Signal;HPM_P1;HPM_P2
2022/06/12 00:02:03;;;;;;;7.13;6.43;;;17.80;99.90;;;;;;4999732;28;20965;-82
2022/06/12 00:04:29;;;;;;;7.37;6.70;;;17.80;99.90;;;;;;5000111;28;20483;-82
2022/06/12 00:06:56;;;;;;;6.97;6.27;;;17.80;99.90;;;;;;4999798;28;20604;-82
2022/06/12 00:09:24;;;;;;;7.97;7.27;;;17.70;99.90;;;;;;5000030;28;20458;-82
2022/06/12 00:11:51;;;;;;;7.10;6.50;;;17.70;99.90;;;;;;4998912;28;20911;-82
2022/06/12 00:14:19;;;;;;;6.80;6.10;;;17.70;99.90;;;;;;4999806;28;20478;-82
2022/06/12 00:16:46;;;;;;;7.23;6.50;;;17.60;99.90;;;;;;5000395;28;20548;-82
2022/06/12 00:19:14;;;;;;;8.20;7.50;;;17.60;99.90;;;;;;4998882;28;20966;-82
2022/06/12 00:21:41;;;;;;;8.63;7.30;;;17.60;99.90;;;;;;4999488;28;20825;-82
2022/06/12 00:24:12;;;;;;;8.10;7.13;;;17.50;99.90;;;;;;5000076;28;20459;-82
2022/06/12 00:26:42;;;;;;;7.97;7.37;;;17.50;99.90;;;;;;4999644;28;20853;-82
2022/06/12 00:29:13;;;;;;;8.03;7.20;;;17.50;99.90;;;;;;4999525;28;20469;-82
2022/06/12 00:31:42;;;;;;;8.27;7.57;;;17.50;99.90;;;;;;4999564;28;20975;-82
2022/06/12 00:34:13;;;;;;;7.03;6.57;;;17.40;99.90;;;;;;4998933;28;20481;-82
2022/06/12 00:36:40;;;;;;;6.87;6.17;;;17.40;99.90;;;;;;4999518;28;20466;-82
2022/06/12 00:39:08;;;;;;;7.17;6.57;;;17.40;99.90;;;;;;4999466;28;20458;-82
2022/06/12 00:41:36;;;;;;;6.70;6.00;;;17.40;99.90;;;;;;4998596;28;20488;-82
2022/06/12 00:44:05;;;;;;;6.80;6.30;;;17.30;99.90;;;;;;5003830;28;20464;-82
2022/06/12 00:46:39;;;;;;;6.50;6.00;;;17.30;99.90;;;;;;4999584;28;20485;-82
2022/06/12 00:49:12;;;;;;;6.73;6.23;;;17.30;99.90;;;;;;4999572;28;20450;-82
2022/06/12 00:51:39;;;;;;;6.67;6.17;;;17.20;99.90;;;;;;4998372;28;20470;-82
2022/06/12 00:54:07;;;;;;;7.70;7.10;;;17.10;99.90;;;;;;4998848;28;20469;-82
2022/06/12 00:56:38;;;;;;;7.97;6.67;;;17.00;99.90;;;;;;4999662;28;20446;-82
2022/06/12 00:59:10;;;;;;;6.97;6.47;;;17.00;99.90;;;;;;4998612;28;20460;-82
2022/06/12 01:01:40;;;;;;;8.43;7.83;;;17.00;99.90;;;;;;4998429;28;20462;-82
2022/06/12 01:06:55;;;;;;;7.43;6.83;;;17.00;99.90;;;;;;4998496;28;20484;-82
2022/06/12 01:09:28;;;;;;;8.07;6.33;;;17.00;99.90;;;;;;4998426;28;20457;-82
2022/06/12 01:11:57;;;;;;;7.23;6.30;;;17.00;99.90;;;;;;4998045;28;20545;-82
2022/06/12 01:14:33;;;;;;;6.63;6.17;;;17.00;99.90;;;;;;4998553;28;20475;-82
2022/06/12 01:17:02;;;;;;;6.43;5.30;;;16.90;99.90;;;;;;4997955;28;20456;-82
2022/06/12 01:19:34;;;;;;;7.07;6.57;;;16.90;99.90;;;;;;4998219;28;20470;-82
2022/06/12 01:22:48;;;;;;;7.60;6.90;;;16.90;99.90;;;;;;4998553;28;20464;-82
2022/06/12 01:25:53;;;;;;;8.40;6.13;;;16.90;99.90;;;;;;4937623;29;20472;-82
2022/06/12 01:28:47;;;;;;;6.90;6.37;;;16.80;99.90;;;;;;4916061;29;20873;-82
2022/06/12 01:31:26;;;;;;;6.80;6.20;;;16.80;99.90;;;;;;4990791;28;20765;-82
2022/06/12 01:34:01;;;;;;;7.20;6.53;;;16.80;99.90;;;;;;4998599;28;20456;-82
2022/06/12 01:36:35;;;;;;;7.37;6.30;;;16.70;99.90;;;;;;4998644;28;20508;-82
2022/06/12 01:39:11;;;;;;;8.30;7.50;;;16.70;99.90;;;;;;4997794;28;20464;-82
2022/06/12 01:41:48;;;;;;;7.00;6.40;;;16.70;99.90;;;;;;4998460;28;20953;-82
2022/06/12 01:44:23;;;;;;;8.57;6.90;;;16.50;99.90;;;;;;4997528;28;20460;-82
2022/06/12 01:46:58;;;;;;;7.13;6.43;;;16.50;99.90;;;;;;4997757;28;20484;-82
2022/06/12 01:49:31;;;;;;;6.63;6.13;;;16.50;99.90;;;;;;4998463;28;20457;-82
2022/06/12 01:52:02;;;;;;;5.63;5.20;;;16.50;99.90;;;;;;4997409;28;20461;-82
2022/06/12 01:54:34;;;;;;;7.13;6.47;;;16.50;99.90;;;;;;4998209;28;20480;-82
2022/06/12 01:57:06;;;;;;;7.70;7.00;;;16.50;99.90;;;;;;4998121;28;20450;-82
2022/06/12 01:59:42;;;;;;;6.97;6.40;;;16.50;99.90;;;;;;4998339;28;21046;-82
2022/06/12 02:02:16;;;;;;;6.47;5.83;;;16.50;99.90;;;;;;4997630;28;20452;-82
2022/06/12 02:04:49;;;;;;;6.60;5.83;;;16.50;99.90;;;;;;4997624;28;20480;-82
2022/06/12 02:07:23;;;;;;;6.07;5.67;;;16.50;99.90;;;;;;4997928;28;20496;-82
2022/06/12 02:09:55;;;;;;;6.70;6.20;;;16.40;99.90;;;;;;4997883;28;20834;-82
2022/06/12 02:15:19;;;;;;;9.47;7.53;;;16.40;99.90;;;;;;4997579;28;20451;-82
2022/06/12 02:17:50;;;;;;;7.67;7.07;;;16.40;99.90;;;;;;4997556;28;20454;-82
2022/06/12 02:20:20;;;;;;;9.17;8.37;;;16.40;99.90;;;;;;4997630;28;20461;-82
2022/06/12 02:22:50;;;;;;;7.20;6.60;;;16.30;99.90;;;;;;4997949;28;20460;-83
2022/06/12 02:25:22;;;;;;;10.23;9.27;;;16.30;99.90;;;;;;5001329;28;20473;-82
2022/06/12 02:27:54;;;;;;;7.50;6.90;;;16.30;99.90;;;;;;4997162;28;20491;-82
2022/06/12 02:30:26;;;;;;;8.77;7.97;;;16.20;99.90;;;;;;4997264;28;20771;-82
2022/06/12 02:32:57;;;;;;;5.90;5.53;;;16.20;99.90;;;;;;4997312;28;20496;-82
2022/06/12 02:35:30;;;;;;;7.63;7.10;;;16.10;99.90;;;;;;4997234;28;20501;-82
2022/06/12 02:38:01;;;;;;;7.70;7.00;;;16.10;99.90;;;;;;4997367;28;20448;-82
2022/06/12 02:40:31;;;;;;;6.87;6.33;;;16.10;99.90;;;;;;4996646;28;20957;-82
2022/06/12 02:43:00;;;;;;;7.67;6.70;;;16.10;99.90;;;;;;4999306;28;20450;-82
2022/06/12 02:45:34;;;;;;;6.60;5.90;;;16.10;99.90;;;;;;5001435;28;20503;-82
2022/06/12 02:48:02;;;;;;;6.60;6.10;;;16.00;99.90;;;;;;5001410;28;20492;-82
2022/06/12 02:50:35;;;;;;;6.83;6.17;;;16.00;99.90;;;;;;4999936;28;20495;-82
2022/06/12 02:53:12;;;;;;;7.13;6.53;;;16.00;99.90;;;;;;5000993;28;20449;-82
2022/06/12 02:55:44;;;;;;;7.03;6.33;;;15.90;99.90;;;;;;5001514;28;20468;-82
2022/06/12 02:58:21;;;;;;;8.60;6.70;;;15.90;99.90;;;;;;5000924;28;20547;-82
2022/06/12 03:00:53;;;;;;;6.43;5.87;;;15.90;99.90;;;;;;5001245;28;20450;-82
2022/06/12 03:03:26;;;;;;;7.07;6.57;;;15.80;99.90;;;;;;5000360;28;20458;-82
2022/06/12 03:05:57;;;;;;;7.13;6.60;;;15.80;99.90;;;;;;5026271;22;20996;-82
2022/06/12 03:08:27;;;;;;;6.70;6.30;;;15.80;99.90;;;;;;5004430;28;20582;-82
2022/06/12 03:10:56;;;;;;;6.23;5.83;;;15.80;99.90;;;;;;5004146;28;20457;-82
2022/06/12 03:13:25;;;;;;;7.60;7.00;;;15.80;99.90;;;;;;5004718;28;20453;-81
2022/06/12 03:15:57;;;;;;;7.63;7.13;;;15.80;99.90;;;;;;5003709;28;20476;-82
2022/06/12 03:18:27;;;;;;;7.43;6.60;;;15.80;99.90;;;;;;5004140;28;20456;-82
2022/06/12 03:21:05;;;;;;;6.50;6.00;;;15.70;99.90;;;;;;5003030;28;20450;-82
2022/06/12 03:23:49;;;;;;;7.50;6.90;;;15.70;99.90;;;;;;5003801;28;20461;-82
2022/06/12 03:26:23;;;;;;;7.23;6.73;;;15.70;99.90;;;;;;5011610;28;20480;-82
2022/06/12 03:28:54;;;;;;;8.50;6.30;;;15.70;99.90;;;;;;5016049;28;20440;-79
2022/06/12 03:31:29;;;;;;;7.40;6.70;;;15.70;99.90;;;;;;5016154;28;20447;-79
2022/06/12 03:34:03;;;;;;;7.03;6.53;;;15.60;99.90;;;;;;5018100;28;20444;-81
2022/06/12 03:36:36;;;;;;;7.20;6.60;;;15.60;99.90;;;;;;5018004;28;20528;-81
2022/06/12 03:39:15;;;;;;;6.90;6.30;;;15.60;99.90;;;;;;5017588;28;20441;-82
2022/06/12 03:41:46;;;;;;;7.60;6.93;;;15.60;99.90;;;;;;5016382;28;20424;-79
2022/06/12 03:44:23;;;;;;;6.23;5.73;;;15.60;99.90;;;;;;5016571;28;20441;-82
2022/06/12 03:46:56;;;;;;;7.07;6.47;;;15.60;99.90;;;;;;5018299;28;20468;-80
2022/06/12 03:49:30;;;;;;;7.93;7.23;;;15.60;99.90;;;;;;5017303;28;20558;-78
2022/06/12 03:52:04;;;;;;;7.57;6.97;;;15.60;99.90;;;;;;5018116;28;20446;-79
2022/06/12 03:54:39;;;;;;;8.10;7.40;;;15.60;99.90;;;;;;5015871;28;20454;-82
2022/06/12 04:00:04;;;;;;;8.80;8.10;;;15.70;99.90;;;;;;5017734;28;20461;-77
2022/06/12 04:02:34;;;;;;;8.87;8.17;;;15.70;99.90;;;;;;5018395;28;20452;-80
2022/06/12 04:05:02;;;;;;;7.97;7.30;;;15.70;99.90;;;;;;5017209;28;20471;-79
2022/06/12 04:07:31;;;;;;;8.23;7.43;;;15.70;99.90;;;;;;5017844;28;20454;-78
2022/06/12 04:10:02;;;;;;;7.97;7.23;;;15.70;99.90;;;;;;5016931;28;20457;-78
2022/06/12 04:12:34;;;;;;;8.30;7.60;;;15.80;99.90;;;;;;5016624;28;20454;-80
2022/06/12 04:15:15;;;;;;;10.33;9.03;;;15.80;99.90;;;;;;5016825;28;20465;-80
2022/06/12 04:17:43;;;;;;;8.83;8.10;;;15.80;99.90;;;;;;5017575;28;20492;-77
2022/06/12 04:20:15;;;;;;;8.77;8.17;;;15.80;99.90;;;;;;5015465;28;20450;-80
2022/06/12 04:22:49;;;;;;;7.57;7.00;;;15.80;99.90;;;;;;5008087;28;20460;-82
2022/06/12 04:25:36;;;;;;;7.90;7.27;;;15.80;99.90;;;;;;5007604;28;20476;-82
2022/06/12 04:28:06;;;;;;;7.43;6.93;;;15.90;99.90;;;;;;5006153;28;20454;-79
2022/06/12 04:30:36;;;;;;;8.23;7.63;;;15.90;99.90;;;;;;5007393;28;20456;-81
2022/06/12 04:33:21;;;;;;;8.03;7.43;;;15.90;99.90;;;;;;5016728;28;20465;-78
2022/06/12 04:35:51;;;;;;;9.73;9.03;;;16.00;99.90;;;;;;5016760;28;20457;-81
2022/06/12 04:38:19;;;;;;;9.07;8.27;;;16.00;99.90;;;;;;5016419;28;20469;-80
2022/06/12 04:40:46;;;;;;;9.90;9.10;;;16.00;99.90;;;;;;5017160;28;20428;-77
2022/06/12 04:43:13;;;;;;;9.30;8.50;;;16.10;99.90;;;;;;5018079;28;20444;-77
2022/06/12 04:45:41;;;;;;;9.83;9.03;;;16.10;99.90;;;;;;5018227;28;20469;-78
2022/06/12 04:48:13;;;;;;;10.33;9.20;;;16.10;99.90;;;;;;5019187;28;20454;-77
2022/06/12 04:50:40;;;;;;;10.70;9.60;;;16.20;99.90;;;;;;5018647;28;20451;-77
2022/06/12 04:53:07;;;;;;;9.63;8.77;;;16.30;99.90;;;;;;5018790;28;20442;-77
2022/06/12 04:55:34;;;;;;;8.30;7.60;;;16.30;99.90;;;;;;5018700;28;20462;-80
2022/06/12 04:58:01;;;;;;;9.30;8.30;;;16.40;99.90;;;;;;5018709;28;20475;-78
2022/06/12 05:00:28;;;;;;;10.27;9.00;;;16.50;99.90;;;;;;5017822;28;20488;-79
2022/06/12 05:02:55;;;;;;;8.90;8.20;;;16.50;99.90;;;;;;5009646;28;20445;-82
2022/06/12 05:05:25;;;;;;;9.33;8.53;;;16.60;99.90;;;;;;5011824;28;20487;-81
2022/06/12 05:07:52;;;;;;;8.33;7.70;;;16.60;99.90;;;;;;5009680;28;20446;-82
2022/06/12 05:10:19;;;;;;;9.27;8.30;;;16.70;99.90;;;;;;5007450;28;20453;-79
2022/06/12 05:12:46;;;;;;;8.17;7.47;;;16.80;99.90;;;;;;5001850;28;20511;-79
2022/06/12 05:15:14;;;;;;;8.17;7.50;;;16.80;99.90;;;;;;5000787;28;20469;-78
2022/06/12 05:17:41;;;;;;;7.63;7.00;;;16.90;99.90;;;;;;5001101;28;20500;-78
2022/06/12 05:20:15;;;;;;;7.47;6.97;;;17.00;99.90;;;;;;5001279;28;20453;-78
2022/06/12 05:22:43;;;;;;;8.87;7.97;;;17.00;99.90;;;;;;5001601;28;20453;-78
2022/06/12 05:25:11;;;;;;;9.70;8.83;;;17.10;99.90;;;;;;5002167;28;20480;-78
2022/06/12 05:27:37;;;;;;;9.23;8.40;;;17.20;99.90;;;;;;5001431;28;20611;-78
2022/06/12 05:30:06;;;;;;;8.90;6.60;;;17.30;99.90;;;;;;5000262;28;20950;-78
2022/06/12 05:32:34;;;;;;;8.60;7.90;;;17.30;99.90;;;;;;4999943;28;20521;-78
2022/06/12 05:35:01;;;;;;;8.13;7.30;;;17.40;99.90;;;;;;4998884;28;20469;-78
2022/06/12 05:37:27;;;;;;;7.80;7.20;;;17.50;99.90;;;;;;5000428;28;20481;-79
2022/06/12 05:39:55;;;;;;;8.63;7.93;;;17.60;99.90;;;;;;4999774;28;20450;-79
2022/06/12 05:42:22;;;;;;;8.43;7.73;;;17.70;99.90;;;;;;4999403;28;20469;-78
2022/06/12 05:44:49;;;;;;;8.27;7.53;;;17.80;99.90;;;;;;4999940;28;20859;-79
2022/06/12 05:47:15;;;;;;;6.60;6.00;;;17.90;99.90;;;;;;4999468;28;20462;-79
2022/06/12 05:49:42;;;;;;;7.40;6.80;;;17.90;99.90;;;;;;4999805;28;20458;-78
2022/06/12 05:52:09;;;;;;;6.93;6.40;;;18.00;99.90;;;;;;4999573;28;20458;-78
2022/06/12 05:54:36;;;;;;;7.70;7.10;;;18.10;99.90;;;;;;5000364;28;20468;-79
2022/06/12 05:57:05;;;;;;;7.60;6.90;;;18.20;99.90;;;;;;5001371;28;20455;-78
2022/06/12 05:59:32;;;;;;;9.10;8.23;;;18.30;99.90;;;;;;5000160;28;21003;-78
2022/06/12 06:01:59;;;;;;;7.13;6.53;;;18.30;99.90;;;;;;4999255;28;20459;-79
2022/06/12 06:04:25;;;;;;;7.20;6.70;;;18.50;99.90;;;;;;4998620;28;20455;-78
2022/06/12 06:06:56;;;;;;;7.23;6.63;;;18.50;99.90;;;;;;4999381;28;20454;-78
2022/06/12 06:09:23;;;;;;;8.03;7.33;;;18.60;99.90;;;;;;4999825;28;20508;-78
2022/06/12 06:11:50;;;;;;;9.00;7.30;;;18.70;99.90;;;;;;4999644;28;20458;-78
2022/06/12 06:14:18;;;;;;;7.17;6.53;;;18.70;99.90;;;;;;5000866;28;20455;-79
2022/06/12 06:16:45;;;;;;;7.50;6.87;;;18.80;99.90;;;;;;4989789;28;20545;-79
2022/06/12 06:19:13;;;;;;;7.50;6.90;;;18.90;99.90;;;;;;4998469;28;20489;-79
2022/06/12 06:21:40;;;;;;;7.83;7.17;;;19.00;99.90;;;;;;4999230;28;20690;-79
2022/06/12 06:24:08;;;;;;;7.03;6.47;;;19.10;99.90;;;;;;4999746;28;20459;-79
2022/06/12 06:26:35;;;;;;;6.77;6.27;;;19.20;99.90;;;;;;5000767;28;20485;-79
2022/06/12 06:29:02;;;;;;;7.07;6.57;;;19.30;99.90;;;;;;5000031;28;21169;-79
2022/06/12 06:31:31;;;;;;;9.43;7.23;;;19.40;99.90;;;;;;5000551;28;20459;-79
2022/06/12 06:33:57;;;;;;;6.20;5.70;;;19.50;99.90;;;;;;5001529;28;20458;-79
2022/06/12 06:36:24;;;;;;;7.47;6.67;;;19.60;99.90;;;;;;5001432;28;20468;-79
2022/06/12 06:38:53;;;;;;;6.10;5.60;;;19.70;99.90;;;;;;5002027;28;21042;-79
2022/06/12 06:41:20;;;;;;;6.60;5.90;;;19.80;99.90;;;;;;5001991;28;20448;-79
2022/06/12 06:46:32;;;;;;;7.93;7.23;;;20.00;99.90;;;;;;5004815;28;20482;-79
2022/06/12 06:48:59;;;;;;;5.97;5.47;;;20.10;99.90;;;;;;5002765;28;20455;-79
2022/06/12 06:51:26;;;;;;;6.47;5.90;;;20.20;99.90;;;;;;5002202;28;20451;-79
2022/06/12 06:53:52;;;;;;;6.83;6.30;;;20.30;99.90;;;;;;5002108;28;20456;-79
2022/06/12 06:56:20;;;;;;;6.30;5.90;;;20.30;99.90;;;;;;5001810;28;20478;-79
2022/06/12 06:58:47;;;;;;;5.93;5.53;;;20.40;99.90;;;;;;5001335;28;20485;-79
2022/06/12 07:01:14;;;;;;;8.10;7.33;;;20.60;99.90;;;;;;5000824;28;20543;-79
2022/06/12 07:03:42;;;;;;;6.93;6.43;;;20.70;99.90;;;;;;5001504;28;20453;-79
2022/06/12 07:06:11;;;;;;;6.30;5.80;;;20.80;99.90;;;;;;5001987;28;20493;-79
2022/06/12 07:08:37;;;;;;;6.97;6.57;;;20.90;99.90;;;;;;5002130;28;20549;-79
2022/06/12 07:11:04;;;;;;;6.67;6.13;;;21.00;99.90;;;;;;5001719;28;20452;-79
2022/06/12 07:13:31;;;;;;;6.13;5.73;;;21.00;99.90;;;;;;5002415;28;20449;-79
2022/06/12 07:15:58;;;;;;;5.53;5.10;;;21.10;99.90;;;;;;5003268;28;20479;-79
2022/06/12 07:18:24;;;;;;;6.47;6.10;;;21.30;99.90;;;;;;5002988;28;20497;-79
2022/06/12 07:20:55;;;;;;;5.93;5.50;;;21.40;99.90;;;;;;5002326;28;20452;-79
2022/06/12 07:23:24;;;;;;;7.20;6.50;;;21.50;99.90;;;;;;5000938;28;20464;-78
2022/06/12 07:25:58;;;;;;;5.87;5.47;;;21.60;99.90;;;;;;5003891;28;20485;-79
2022/06/12 07:28:27;;;;;;;6.23;5.73;;;21.70;99.90;;;;;;5016399;28;20451;-80
2022/06/12 07:30:54;;;;;;;5.50;4.23;;;21.80;99.90;;;;;;5010878;28;20519;-79
2022/06/12 07:33:21;;;;;;;5.50;5.00;;;21.90;99.90;;;;;;5009056;28;20453;-79
2022/06/12 07:35:49;;;;;;;6.70;6.23;;;22.00;99.90;;;;;;5012718;28;20477;-81
2022/06/12 07:38:21;;;;;;;6.00;5.40;;;22.20;99.90;;;;;;5010173;28;20484;-80
2022/06/12 07:40:51;;;;;;;6.03;5.63;;;22.30;99.90;;;;;;5011029;28;20425;-79
2022/06/12 07:43:18;;;;;;;5.50;5.10;;;22.40;99.90;;;;;;5011701;28;20444;-79
2022/06/12 07:45:46;;;;;;;5.63;5.17;;;22.50;99.90;;;;;;5010037;28;20524;-79
2022/06/12 07:48:13;;;;;;;5.33;4.93;;;22.50;99.90;;;;;;5009225;28;20435;-79
2022/06/12 07:50:41;;;;;;;5.30;5.00;;;22.60;99.90;;;;;;5009899;28;20435;-81
2022/06/12 07:53:09;;;;;;;5.90;5.43;;;22.70;99.90;;;;;;5008422;28;20436;-80
2022/06/12 07:55:37;;;;;;;5.27;4.80;;;22.80;99.90;;;;;;5008418;28;20486;-80
2022/06/12 07:58:05;;;;;;;6.10;5.53;;;22.80;99.90;;;;;;5012631;28;20464;-79
2022/06/12 08:00:32;;;;;;;4.40;4.10;;;22.90;99.90;;;;;;5010367;28;20471;-80
2022/06/12 08:02:59;;;;;;;6.90;5.83;;;23.10;99.90;;;;;;5008031;28;20462;-82
2022/06/12 08:05:26;;;;;;;5.00;4.70;;;23.20;99.90;;;;;;5002103;28;20721;-81
2022/06/12 08:07:53;;;;;;;6.13;5.53;;;23.20;99.90;;;;;;5006030;28;20435;-81
2022/06/12 08:10:20;;;;;;;6.63;5.13;;;23.30;99.90;;;;;;5001173;28;20452;-81
2022/06/12 08:12:48;;;;;;;5.60;5.20;;;23.50;99.90;;;;;;5002455;28;20447;-81
2022/06/12 08:15:19;;;;;;;5.10;4.53;;;23.50;99.30;;;;;;5009175;28;20466;-80
2022/06/12 08:17:45;;;;;;;5.37;4.97;;;23.50;98.50;;;;;;5013594;28;20443;-79
2022/06/12 08:20:28;;;;;;;4.60;4.03;;;23.50;97.30;;;;;;5016401;28;20487;-79
2022/06/12 08:22:59;;;;;;;5.60;5.07;;;23.50;96.70;;;;;;5011109;28;21181;-79
2022/06/12 08:25:28;;;;;;;4.37;3.50;;;23.60;96.70;;;;;;5016419;28;20476;-80
2022/06/12 08:27:56;;;;;;;4.10;3.70;;;23.70;96.00;;;;;;5016678;28;20471;-79
2022/06/12 08:30:24;;;;;;;4.17;3.87;;;23.80;94.20;;;;;;5010182;28;20465;-80
2022/06/12 08:32:53;;;;;;;3.50;3.30;;;23.90;94.80;;;;;;5012306;28;20455;-79
2022/06/12 08:35:24;;;;;;;3.60;3.40;;;24.00;94.30;;;;;;5012632;28;20477;-79
2022/06/12 08:37:50;;;;;;;4.90;4.60;;;24.00;94.20;;;;;;5015932;28;20455;-79
2022/06/12 08:40:24;;;;;;;4.33;4.03;;;24.20;95.00;;;;;;5012513;28;20489;-78
2022/06/12 08:43:01;;;;;;;4.13;3.83;;;24.40;95.50;;;;;;5009636;28;20490;-78
2022/06/12 08:45:34;;;;;;;4.30;4.00;;;24.50;94.40;;;;;;5011175;28;20475;-79
2022/06/12 08:48:15;;;;;;;4.87;4.57;;;24.60;93.30;;;;;;5007747;28;20458;-79
2022/06/12 08:50:45;;;;;;;4.70;4.30;;;24.70;93.80;;;;;;5008210;28;20487;-79
2022/06/12 08:53:20;;;;;;;5.10;4.70;;;24.80;93.60;;;;;;5006097;28;20452;-79
2022/06/12 08:55:51;;;;;;;4.90;3.90;;;24.90;94.30;;;;;;5004733;28;20472;-82
2022/06/12 08:58:24;;;;;;;6.20;5.70;;;25.00;92.60;;;;;;5002991;28;20456;-79
2022/06/12 09:00:51;;;;;;;5.37;4.77;;;25.10;93.30;;;;;;5003154;28;20957;-80
2022/06/12 09:03:31;;;;;;;5.90;5.40;;;25.10;93.60;;;;;;5004474;28;20553;-80
2022/06/12 09:06:39;;;;;;;5.10;4.50;;;25.10;93.90;;;;;;5014393;23;20576;-84
2022/06/12 09:09:23;;;;;;;6.30;5.70;;;25.20;94.70;;;;;;4953325;28;20478;-84
2022/06/12 09:12:32;;;;;;;7.30;4.60;;;25.30;95.80;;;;;;4977066;28;20457;-85
2022/06/12 09:15:33;;;;;;;5.60;5.30;;;25.40;94.90;;;;;;4978737;28;20462;-84
2022/06/12 09:18:18;;;;;;;5.80;5.30;;;25.50;96.30;;;;;;4959335;28;20453;-84
2022/06/12 09:20:55;;;;;;;6.00;5.60;;;25.70;95.80;;;;;;4964376;28;20459;-85
2022/06/12 09:23:34;;;;;;;5.97;5.57;;;25.80;96.10;;;;;;4965576;28;20466;-85
2022/06/12 09:26:12;;;;;;;5.10;4.80;;;26.00;95.50;;;;;;4963880;28;20489;-86
2022/06/12 09:28:46;;;;;;;5.70;5.33;;;26.20;95.20;;;;;;4966298;28;20564;-84
2022/06/12 09:31:22;;;;;;;5.23;4.80;;;26.20;93.20;;;;;;4962703;28;20464;-84
2022/06/12 09:33:58;;;;;;;5.70;5.30;;;26.30;94.10;;;;;;4960739;29;20468;-84
2022/06/12 09:36:38;;;;;;;6.00;5.03;;;26.50;93.00;;;;;;4962260;28;20481;-85
2022/06/12 09:39:12;;;;;;;5.90;5.40;;;26.50;92.30;;;;;;4960593;29;20452;-85
2022/06/12 09:41:47;;;;;;;5.93;4.83;;;26.70;92.70;;;;;;4962890;28;20464;-86
2022/06/12 09:44:18;;;;;;;5.20;4.80;;;27.00;93.20;;;;;;4944105;29;20465;-85
2022/06/12 09:47:32;;;;;;;6.30;5.80;;;27.30;93.00;;;;;;4956336;28;20569;-87
2022/06/12 10:07:52;;;;;;;5.47;4.97;;;29.10;85.30;;;;;;4829922;29;20502;-87
2022/06/12 10:23:09;;;;;;;5.80;5.27;;;28.40;83.60;;;;;;4912540;29;20454;-85
2022/06/12 10:26:01;;;;;;;4.97;4.57;;;28.50;80.50;;;;;;4909053;29;20519;-85
2022/06/12 10:28:51;;;;;;;5.43;5.00;;;28.10;83.50;;;;;;4913494;29;20887;-86
2022/06/12 10:32:14;;;;;;;6.30;5.70;;;28.10;82.00;;;;;;4913108;29;20465;-86
2022/06/12 10:34:42;;;;;;;5.03;4.63;;;28.20;82.80;;;;;;4904876;29;20465;-85
2022/06/12 10:50:55;;;;;;;4.90;4.60;;;29.60;78.50;;;;;;4924279;29;20481;-88
2022/06/12 10:53:24;;;;;;;5.27;4.97;;;29.90;75.10;;;;;;4960336;28;20496;-87
2022/06/12 10:56:00;;;;;;;4.90;4.43;;;30.00;75.90;;;;;;4960972;28;20477;-88
2022/06/12 10:59:02;;;;;;;5.20;4.80;;;30.30;76.60;;;;;;4958593;28;20800;-88
2022/06/12 11:01:35;;;;;;;4.63;4.37;;;30.50;74.10;;;;;;4959038;28;20446;-87
2022/06/12 11:04:10;;;;;;;5.40;4.90;;;30.70;70.80;;;;;;4960356;28;20480;-87
2022/06/12 11:06:48;;;;;;;4.30;3.87;;;30.90;69.30;;;;;;4960353;28;20479;-86
2022/06/12 11:09:25;;;;;;;5.37;5.00;;;31.20;70.80;;;;;;4960311;28;20489;-89
2022/06/12 11:12:11;;;;;;;4.90;4.50;;;31.40;68.70;;;;;;4960914;28;20479;-86
2022/06/12 11:14:53;;;;;;;4.67;4.37;;;31.70;66.60;;;;;;4963680;28;20461;-85
2022/06/12 11:21:09;;;;;;;5.13;4.83;;;32.80;61.60;;;;;;4943680;29;20460;-84
2022/06/12 11:23:55;;;;;;;4.60;3.70;;;33.20;62.20;;;;;;4964504;28;20455;-86
2022/06/12 11:26:33;;;;;;;4.93;4.63;;;33.40;59.80;;;;;;4962520;28;20487;-90
2022/06/12 11:29:16;;;;;;;3.80;3.53;;;33.30;61.00;;;;;;4963446;28;20459;-81
2022/06/12 11:31:54;;;;;;;5.23;4.83;;;33.60;57.50;;;;;;4964095;28;20444;-86
2022/06/12 11:34:43;;;;;;;4.80;4.40;;;33.90;57.40;;;;;;4965244;28;20455;-86
2022/06/12 11:37:27;;;;;;;4.60;4.30;;;34.00;54.90;;;;;;4944005;29;20481;-84
2022/06/12 11:40:03;;;;;;;3.80;3.60;;;33.80;55.80;;;;;;4950369;29;20470;-89
2022/06/12 11:42:50;;;;;;;4.63;4.33;;;33.20;56.20;;;;;;4960195;28;20453;-83
2022/06/12 11:45:25;;;;;;;4.90;4.60;;;33.20;57.40;;;;;;4962017;28;20466;-83
2022/06/12 11:48:08;;;;;;;5.23;4.93;;;33.00;55.80;;;;;;4962452;28;20472;-82
2022/06/12 11:50:41;;;;;;;5.03;4.73;;;32.70;57.10;;;;;;4962590;28;20490;-83
2022/06/12 11:53:23;;;;;;;4.73;4.43;;;32.70;56.50;;;;;;4964247;28;20464;-84
2022/06/12 11:55:58;;;;;;;4.30;4.00;;;33.00;56.70;;;;;;4963450;28;20460;-84
2022/06/12 11:58:40;;;;;;;5.23;4.83;;;33.30;57.60;;;;;;4963961;28;20467;-84
2022/06/12 12:01:14;;;;;;;4.27;4.07;;;34.40;57.90;;;;;;4964020;28;20504;-85
2022/06/12 12:04:05;;;;;;;3.90;3.70;;;35.60;55.20;;;;;;4964344;28;20966;-84
2022/06/12 12:06:53;;;;;;;4.93;4.53;;;36.40;51.60;;;;;;4964064;28;20504;-86
2022/06/12 12:09:33;;;;;;;4.00;3.80;;;37.20;49.30;;;;;;4959931;28;20491;-85
2022/06/12 12:12:05;;;;;;;4.40;4.10;;;37.30;48.70;;;;;;4964549;28;20949;-85
2022/06/12 12:14:37;;;;;;;4.70;4.30;;;36.90;46.10;;;;;;4963607;28;20544;-86
2022/06/12 12:17:24;;;;;;;4.20;3.80;;;36.00;47.40;;;;;;4957661;28;20882;-85
2022/06/12 12:19:56;;;;;;;4.97;4.53;;;36.00;49.90;;;;;;4958006;28;20457;-85
2022/06/12 12:22:33;;;;;;;4.30;3.67;;;36.50;47.70;;;;;;4956691;28;20461;-84
2022/06/12 12:25:05;;;;;;;4.13;3.73;;;36.60;47.20;;;;;;4956746;28;20555;-84
2022/06/12 12:27:40;;;;;;;3.93;3.63;;;36.30;46.70;;;;;;4957962;28;20484;-85
2022/06/12 12:30:17;;;;;;;4.10;3.80;;;36.10;47.30;;;;;;4957773;28;20495;-85
2022/06/12 12:32:48;;;;;;;3.80;3.60;;;35.90;46.30;;;;;;4958232;28;20814;-86
2022/06/12 12:43:33;;;;;;;4.57;4.27;;;36.30;46.20;;;;;;4960084;29;20530;-84
2022/06/12 12:46:03;;;;;;;4.20;4.00;;;36.30;46.30;;;;;;4959768;28;20837;-84
2022/06/12 12:48:40;;;;;;;5.10;4.23;;;35.20;46.10;;;;;;4960597;28;20457;-84
2022/06/12 12:51:07;;;;;;;4.90;4.60;;;34.60;46.90;;;;;;4958877;28;20973;-83
2022/06/12 12:53:35;;;;;;;4.87;4.47;;;34.60;48.70;;;;;;4962315;28;20461;-84
2022/06/12 12:56:05;;;;;;;4.50;4.17;;;33.90;48.20;;;;;;4963007;28;20472;-84
2022/06/12 12:58:36;;;;;;;5.10;4.80;;;33.50;49.60;;;;;;4963540;28;20460;-84
2022/06/12 13:01:16;;;;;;;5.33;4.03;;;32.30;48.90;;;;;;4962517;28;20449;-84
2022/06/12 13:03:48;;;;;;;4.40;4.10;;;32.50;51.80;;;;;;4962738;28;20527;-84
2022/06/12 13:06:36;;;;;;;4.20;3.93;;;32.90;51.80;;;;;;4963282;28;20487;-84
2022/06/12 13:09:18;;;;;;;3.80;3.50;;;33.80;50.90;;;;;;4961534;28;20464;-85
2022/06/12 13:11:59;;;;;;;6.57;3.93;;;34.20;49.10;;;;;;4958470;28;20445;-83
2022/06/12 13:14:49;;;;;;;3.93;3.70;;;33.90;49.10;;;;;;4959927;28;20460;-84
2022/06/12 13:17:35;;;;;;;3.30;3.10;;;33.70;48.30;;;;;;4960502;28;20480;-84
2022/06/12 13:20:21;;;;;;;4.50;4.20;;;33.40;48.90;;;;;;4957514;28;20448;-84
2022/06/12 13:25:43;;;;;;;3.67;3.47;;;33.80;49.70;;;;;;4958209;28;20449;-85
2022/06/12 13:28:21;;;;;;;4.13;3.43;;;34.20;48.60;;;;;;4955627;28;20499;-85
2022/06/12 13:34:39;;;;;;;5.10;4.30;;;32.20;49.90;;;;;;4944944;28;20539;-87
2022/06/12 13:37:06;;;;;;;4.10;3.80;;;31.50;51.20;;;;;;4957627;28;20484;-83
2022/06/12 13:39:37;;;;;;;4.27;3.97;;;31.10;52.40;;;;;;4957493;28;21010;-85
2022/06/12 13:42:08;;;;;;;4.43;4.07;;;31.30;53.30;;;;;;4963202;28;20457;-83
2022/06/12 13:44:42;;;;;;;3.93;3.63;;;31.00;51.80;;;;;;4965302;28;20803;-83
2022/06/12 13:47:23;;;;;;;3.83;3.63;;;30.80;53.70;;;;;;4964462;28;20487;-82
2022/06/12 13:49:55;;;;;;;3.80;3.60;;;30.90;53.90;;;;;;4964600;28;21002;-82
2022/06/12 13:52:32;;;;;;;5.87;4.87;;;31.40;52.50;;;;;;4962921;28;20475;-82
2022/06/12 13:54:59;;;;;;;3.70;3.40;;;31.80;51.70;;;;;;4961485;28;20468;-82
2022/06/12 13:57:30;;;;;;;4.57;4.27;;;31.90;52.60;;;;;;4964797;28;20498;-81
2022/06/12 13:59:58;;;;;;;3.53;3.23;;;31.90;53.40;;;;;;4964985;28;20551;-82
2022/06/12 14:02:27;;;;;;;4.17;3.87;;;31.70;53.10;;;;;;4964885;28;20530;-83
2022/06/12 14:04:59;;;;;;;3.80;3.60;;;31.10;53.00;;;;;;4964153;28;20547;-82
2022/06/12 14:07:30;;;;;;;3.90;3.60;;;30.60;54.00;;;;;;4961602;28;20477;-83
2022/06/12 14:10:01;;;;;;;3.60;3.30;;;30.10;54.90;;;;;;4961597;28;20600;-83
2022/06/12 14:12:31;;;;;;;3.90;3.70;;;30.50;57.30;;;;;;4963174;28;20465;-82
2022/06/12 14:14:58;;;;;;;4.03;3.83;;;31.60;56.00;;;;;;4965173;28;20813;-81
2022/06/12 14:17:27;;;;;;;4.77;4.33;;;32.80;54.10;;;;;;4965662;28;20503;-81
2022/06/12 14:20:02;;;;;;;3.87;3.67;;;33.70;51.30;;;;;;4967422;28;20460;-80
2022/06/12 14:22:36;;;;;;;3.70;3.50;;;34.90;52.10;;;;;;4967203;28;20468;-81
2022/06/12 14:25:18;;;;;;;3.87;3.57;;;35.50;48.70;;;;;;4968024;28;20457;-82
2022/06/12 14:27:56;;;;;;;3.63;3.43;;;36.60;48.60;;;;;;4967264;28;20479;-79
2022/06/12 14:30:40;;;;;;;3.93;3.73;;;37.70;46.50;;;;;;4965974;28;20495;-81